createdAt,value
2022-10-18T00:00:52.272Z,102524.66
2022-10-18T00:03:40.244Z,102517.59
2022-10-18T00:06:09.289Z,102513.16
2022-10-18T00:08:38.491Z,102507.78
2022-10-18T00:11:06.893Z,102513.94
2022-10-18T00:13:34.451Z,102511.97
2022-10-18T00:16:03.916Z,102521.66
2022-10-18T00:18:31.505Z,102515.38
2022-10-18T00:21:13.250Z,102511.84
2022-10-18T00:23:40.847Z,102505.66
2022-10-18T00:26:08.828Z,102507.38
2022-10-18T00:28:36.908Z,102510.78
2022-10-18T00:31:17.361Z,102509.09
2022-10-18T00:33:46.136Z,102500.25
2022-10-18T00:36:14.738Z,102509.00
2022-10-18T00:38:42.796Z,102505.50
2022-10-18T00:41:13.362Z,102508.03
2022-10-18T00:44:28.096Z,102500.06
2022-10-18T00:47:06.930Z,102484.22
2022-10-18T00:49:47.475Z,102485.94
2022-10-18T00:52:36.463Z,102485.06
2022-10-18T00:55:06.030Z,102477.22
2022-10-18T00:57:33.890Z,102469.31
2022-10-18T01:00:01.421Z,102469.31
2022-10-18T01:02:29.451Z,102465.88
2022-10-18T01:04:57.227Z,102478.94
2022-10-18T01:07:56.529Z,102473.56
2022-10-18T01:10:41.926Z,102473.59
2022-10-18T01:13:12.036Z,102479.78
2022-10-18T01:15:59.920Z,102483.25
2022-10-18T01:18:59.340Z,102486.78
2022-10-18T01:22:03.085Z,102485.75
2022-10-18T01:25:19.150Z,102491.00
2022-10-18T01:27:56.207Z,102483.97
2022-10-18T01:30:23.579Z,102481.28
2022-10-18T01:33:00.868Z,102477.66
2022-10-18T01:35:37.573Z,102476.66
2022-10-18T01:38:07.838Z,102485.31
2022-10-18T01:40:36.239Z,102479.91
2022-10-18T01:43:04.708Z,102472.81
2022-10-18T01:45:33.102Z,102468.44
2022-10-18T01:48:02.094Z,102474.53
2022-10-18T01:50:34.797Z,102476.16
2022-10-18T01:53:02.871Z,102481.44
2022-10-18T01:55:56.967Z,102466.56
2022-10-18T01:58:46.813Z,102466.56
2022-10-18T02:01:42.575Z,102467.53
2022-10-18T02:04:28.893Z,102459.75
2022-10-18T02:07:04.045Z,102453.53
2022-10-18T02:09:43.653Z,102444.78
2022-10-18T02:12:15.040Z,102444.97
2022-10-18T02:14:45.190Z,102442.31
2022-10-18T02:17:13.152Z,102446.69
2022-10-18T02:19:50.913Z,102459.75
2022-10-18T02:22:19.727Z,102466.59
2022-10-18T02:24:53.759Z,102458.69
2022-10-18T02:27:24.720Z,102467.38
2022-10-18T02:29:52.906Z,102463.84
2022-10-18T02:32:41.256Z,102462.03
2022-10-18T02:35:16.705Z,102454.19
2022-10-18T02:37:47.569Z,102454.91
2022-10-18T02:40:15.557Z,102447.81
2022-10-18T02:42:53.909Z,102444.28
2022-10-18T02:45:23.227Z,102442.53
2022-10-18T02:47:50.323Z,102443.41
2022-10-18T02:50:18.444Z,102443.41
2022-10-18T02:52:45.476Z,102452.97
2022-10-18T02:55:12.853Z,102456.50
2022-10-18T02:57:39.953Z,102448.53
2022-10-18T03:00:08.048Z,102441.56
2022-10-18T03:02:35.222Z,102451.16
2022-10-18T03:05:02.681Z,102449.31
2022-10-18T03:12:55.006Z,102452.50
2022-10-18T03:15:24.655Z,102452.34
2022-10-18T03:17:53.904Z,102464.69
2022-10-18T03:20:24.221Z,102455.91
2022-10-18T03:22:51.430Z,102447.94
2022-10-18T03:25:20.897Z,102442.75
2022-10-18T03:27:47.866Z,102442.69
2022-10-18T03:30:19.767Z,102452.25
2022-10-18T03:32:49.168Z,102442.66
2022-10-18T03:35:16.594Z,102443.47
2022-10-18T03:37:44.611Z,102439.88
2022-10-18T03:40:13.070Z,102440.81
2022-10-18T03:42:40.354Z,102456.47
2022-10-18T03:45:09.509Z,102452.00
2022-10-18T03:47:37.738Z,102451.13
2022-10-18T03:50:05.370Z,102444.84
2022-10-18T03:52:32.808Z,102443.06
2022-10-18T03:55:00.244Z,102443.06
2022-10-18T03:57:27.228Z,102448.31
2022-10-18T03:59:54.450Z,102447.53
2022-10-18T04:02:21.614Z,102438.81
2022-10-18T04:04:50.331Z,102436.28
2022-10-18T04:07:17.319Z,102440.69
2022-10-18T04:09:44.624Z,102446.00
2022-10-18T04:12:11.640Z,102436.38
2022-10-18T04:14:38.881Z,102433.84
2022-10-18T04:17:05.923Z,102444.44
2022-10-18T04:19:33.190Z,102439.16
2022-10-18T04:22:00.264Z,102439.22
2022-10-18T04:24:27.509Z,102431.28
2022-10-18T04:26:54.581Z,102422.41
2022-10-18T04:29:26.775Z,102417.13
2022-10-18T04:31:53.755Z,102435.53
2022-10-18T04:34:21.197Z,102433.66
2022-10-18T04:36:50.422Z,102417.88
2022-10-18T04:39:23.405Z,102419.72
2022-10-18T04:41:50.388Z,102418.00
2022-10-18T04:44:17.703Z,102421.63
2022-10-18T04:46:44.841Z,102411.19
2022-10-18T04:49:12.399Z,102410.53
2022-10-18T04:51:42.071Z,102408.94
2022-10-18T04:54:12.251Z,102407.31
2022-10-18T04:56:42.316Z,102403.84
2022-10-18T04:59:09.723Z,102398.50
2022-10-18T05:01:38.002Z,102403.81
2022-10-18T05:04:06.863Z,102400.28
2022-10-18T05:06:38.911Z,102407.31
2022-10-18T05:09:06.401Z,102414.25
2022-10-18T05:11:33.481Z,102409.66
2022-10-18T05:14:00.745Z,102423.69
2022-10-18T05:16:29.527Z,102419.25
2022-10-18T05:19:02.734Z,102416.59
2022-10-18T05:21:30.051Z,102416.78
2022-10-18T05:23:57.656Z,102417.88
2022-10-18T05:26:26.031Z,102413.63
2022-10-18T05:28:53.914Z,102419.94
2022-10-18T05:31:21.929Z,102412.25
2022-10-18T05:33:49.343Z,102407.16
2022-10-18T05:36:16.665Z,102425.78
2022-10-18T05:38:45.663Z,102427.66
2022-10-18T05:41:13.228Z,102427.06
2022-10-18T05:43:41.458Z,102420.22
2022-10-18T05:46:13.913Z,102407.16
2022-10-18T05:48:49.815Z,102409.13
2022-10-18T05:51:17.596Z,102422.56
2022-10-18T05:53:45.611Z,102417.41
2022-10-18T05:56:14.308Z,102423.84
2022-10-18T05:58:43.538Z,102420.50
2022-10-18T06:01:10.708Z,102420.66
2022-10-18T06:03:38.273Z,102414.72
2022-10-18T06:06:08.111Z,102414.06
2022-10-18T06:08:36.767Z,102416.78
2022-10-18T06:11:08.528Z,102416.03
2022-10-18T06:13:48.149Z,102419.81
2022-10-18T06:16:17.407Z,102415.56
2022-10-18T06:18:56.986Z,102411.34
2022-10-18T06:21:25.239Z,102408.00
2022-10-18T06:24:07.901Z,102392.38
2022-10-18T06:26:51.248Z,102400.56
2022-10-18T06:29:33.737Z,102392.84
2022-10-18T06:32:02.619Z,102398.31
2022-10-18T06:34:29.664Z,102392.34
2022-10-18T06:36:58.946Z,102399.53
2022-10-18T06:39:28.655Z,102397.88
2022-10-18T06:41:58.243Z,102391.78
2022-10-18T06:44:25.783Z,102396.28
2022-10-18T06:46:53.978Z,102387.53
2022-10-18T06:49:23.577Z,102391.22
2022-10-18T06:52:10.185Z,102389.53
2022-10-18T06:54:38.587Z,102377.31
2022-10-18T06:57:07.230Z,102375.66
2022-10-18T06:59:35.019Z,102366.97
2022-10-18T07:02:03.022Z,102373.25
2022-10-18T07:04:33.092Z,102379.50
2022-10-18T07:07:00.789Z,102375.19
2022-10-18T07:09:28.501Z,102371.72
2022-10-18T07:11:56.694Z,102363.00
2022-10-18T07:14:37.363Z,102361.31
2022-10-18T07:17:24.371Z,102359.59
2022-10-18T07:22:40.247Z,102359.69
2022-10-18T07:25:11.494Z,102349.13
2022-10-18T07:27:42.941Z,102342.13
2022-10-18T07:30:11.471Z,102349.19
2022-10-18T07:32:38.533Z,102337.75
2022-10-18T07:35:22.776Z,102339.50
2022-10-18T07:37:53.740Z,102344.78
2022-10-18T07:40:21.282Z,102350.06
2022-10-18T07:42:48.987Z,102337.66
2022-10-18T07:45:16.015Z,102336.69
2022-10-18T07:47:43.243Z,102335.69
2022-10-18T07:50:10.271Z,102333.81
2022-10-18T07:52:38.868Z,102326.53
2022-10-18T07:55:08.171Z,102323.66
2022-10-18T07:57:36.559Z,102315.59
2022-10-18T08:00:09.329Z,102316.25
2022-10-18T08:05:18.745Z,102303.22
2022-10-18T08:07:50.499Z,102300.00
2022-10-18T08:13:18.023Z,102312.03
2022-10-18T08:16:08.240Z,102313.19
2022-10-18T08:18:43.133Z,102300.09
2022-10-18T08:21:13.497Z,102303.94
2022-10-18T08:26:24.416Z,102293.00
2022-10-18T08:29:10.432Z,102297.72
2022-10-18T08:31:39.536Z,102296.25
2022-10-18T08:34:06.541Z,102287.81
2022-10-18T08:36:34.035Z,102284.66
2022-10-18T08:39:03.030Z,102282.34
2022-10-18T08:42:13.179Z,102290.06
2022-10-18T08:45:00.167Z,102274.13
2022-10-18T08:47:42.658Z,102275.44
2022-10-18T08:50:23.958Z,102280.13
2022-10-18T08:52:51.002Z,102280.66
2022-10-18T08:55:36.647Z,102277.19
2022-10-18T08:58:16.814Z,102272.22
2022-10-18T09:00:53.184Z,102265.97
2022-10-18T09:03:38.586Z,102258.94
2022-10-18T09:06:31.602Z,102260.41
2022-10-18T09:09:30.045Z,102256.28
2022-10-18T09:12:29.374Z,102256.72
2022-10-18T09:15:16.303Z,102255.19
2022-10-18T09:18:08.552Z,102247.41
2022-10-18T09:20:55.867Z,102242.59
2022-10-18T09:23:58.087Z,102232.03
2022-10-18T09:26:26.333Z,102224.34
2022-10-18T09:28:59.566Z,102230.06
2022-10-18T09:31:33.425Z,102224.53
2022-10-18T09:34:12.630Z,102222.38
2022-10-18T09:36:40.142Z,102219.50
2022-10-18T09:39:18.171Z,102218.81
2022-10-18T09:44:45.025Z,102210.06
2022-10-18T09:47:48.005Z,102205.84
2022-10-18T09:50:37.961Z,102193.84
2022-10-18T09:53:35.420Z,102200.88
2022-10-18T09:56:09.579Z,102193.09
2022-10-18T09:58:46.566Z,102195.75
2022-10-18T10:01:18.479Z,102175.03
2022-10-18T10:03:45.779Z,102187.00
2022-10-18T10:06:12.704Z,102182.88
2022-10-18T10:08:47.650Z,102189.28
2022-10-18T10:11:45.493Z,102176.63
2022-10-18T10:14:14.388Z,102174.47
2022-10-18T10:17:11.619Z,102171.47
2022-10-18T10:20:12.890Z,102161.97
2022-10-18T10:22:41.691Z,102157.84
2022-10-18T10:25:26.086Z,102135.53
2022-10-18T10:27:53.426Z,102130.03
2022-10-18T10:30:29.400Z,102128.06
2022-10-18T10:32:58.251Z,102127.59
2022-10-18T10:35:52.475Z,102127.59
2022-10-18T10:38:25.749Z,102113.00
2022-10-18T10:40:54.084Z,102106.56
2022-10-18T10:43:37.571Z,102114.78
2022-10-18T10:46:36.603Z,102118.81
2022-10-18T10:49:39.154Z,102103.22
2022-10-18T10:52:08.916Z,102099.47
2022-10-18T10:54:48.993Z,102089.97
2022-10-18T10:57:27.146Z,102088.47
2022-10-18T10:59:57.150Z,102089.25
2022-10-18T11:03:28.083Z,102080.84
2022-10-18T11:05:58.038Z,102080.94
2022-10-18T11:11:23.140Z,102069.13
2022-10-18T11:14:25.191Z,102067.25
2022-10-18T11:17:12.105Z,102061.94
2022-10-18T11:19:51.301Z,102027.28
2022-10-18T11:22:23.755Z,102040.66
2022-10-18T11:24:51.005Z,102038.91
2022-10-18T11:27:29.849Z,102041.97
2022-10-18T11:30:20.154Z,102022.28
2022-10-18T11:33:15.287Z,102021.69
2022-10-18T11:36:14.253Z,102015.97
2022-10-18T11:38:49.128Z,102018.81
2022-10-18T11:41:34.186Z,102007.06
2022-10-18T11:44:04.562Z,101997.41
2022-10-18T11:46:31.799Z,101996.97
2022-10-18T11:49:13.927Z,101984.47
2022-10-18T11:52:07.894Z,101977.44
2022-10-18T11:55:11.574Z,101983.88
2022-10-18T11:57:42.219Z,101979.34
2022-10-18T12:00:18.833Z,101977.81
2022-10-18T12:02:52.213Z,101960.59
2022-10-18T12:05:24.212Z,101962.25
2022-10-18T12:08:23.866Z,101963.38
2022-10-18T12:11:06.063Z,101952.19
2022-10-18T12:13:43.418Z,101959.25
2022-10-18T12:16:50.045Z,101941.69
2022-10-18T12:19:27.007Z,101938.84
2022-10-18T12:22:13.979Z,101941.09
2022-10-18T12:24:44.870Z,101941.94
2022-10-18T12:27:19.979Z,101924.81
2022-10-18T12:29:53.854Z,101916.34
2022-10-18T12:32:27.229Z,101931.25
2022-10-18T12:35:16.749Z,101923.09
2022-10-18T12:38:12.445Z,101915.00
2022-10-18T12:40:53.443Z,101913.09
2022-10-18T12:43:25.635Z,101912.38
2022-10-18T12:46:01.700Z,101898.31
2022-10-18T12:48:34.643Z,101907.06
2022-10-18T12:51:15.769Z,101896.28
2022-10-18T12:54:15.772Z,101893.59
2022-10-18T12:56:52.955Z,101887.59
2022-10-18T12:59:20.352Z,101893.78
2022-10-18T13:01:50.825Z,101890.31
2022-10-18T13:04:27.663Z,101874.38
2022-10-18T13:07:01.382Z,101881.78
2022-10-18T13:09:36.687Z,101857.88
2022-10-18T13:12:13.451Z,101870.13
2022-10-18T13:14:48.303Z,101871.94
2022-10-18T13:17:47.918Z,101869.19
2022-10-18T13:21:15.303Z,101854.84
2022-10-18T13:24:17.679Z,101847.69
2022-10-18T13:27:04.196Z,101851.38
2022-10-18T13:30:10.811Z,101850.47
2022-10-18T13:33:17.138Z,101852.50
2022-10-18T13:36:00.245Z,101842.50
2022-10-18T13:38:56.049Z,101842.50
2022-10-18T13:41:49.967Z,101829.19
2022-10-18T13:44:38.497Z,101819.69
2022-10-18T13:47:37.985Z,101818.69
2022-10-18T13:50:21.320Z,101817.78
2022-10-18T13:53:26.232Z,101809.81
2022-10-18T13:56:14.638Z,101811.38
2022-10-18T13:59:14.061Z,101801.97
2022-10-18T14:02:15.132Z,101800.25
2022-10-18T14:05:40.290Z,101789.63
2022-10-18T14:08:15.909Z,101776.69
2022-10-18T14:11:06.434Z,101779.75
2022-10-18T14:13:52.622Z,101780.94
2022-10-18T14:19:43.093Z,101776.84
2022-10-18T14:22:24.170Z,101775.28
2022-10-18T14:24:58.382Z,101763.19
2022-10-18T14:27:33.059Z,101762.38
2022-10-18T14:30:17.923Z,101759.41
2022-10-18T14:32:51.490Z,101758.03
2022-10-18T14:35:35.016Z,101760.22
2022-10-18T14:40:46.703Z,101745.25
2022-10-18T14:43:17.659Z,101749.22
2022-10-18T14:45:48.960Z,101749.69
2022-10-18T14:48:22.626Z,101744.16
2022-10-18T14:51:01.635Z,101745.59
2022-10-18T14:53:39.231Z,101740.88
2022-10-18T14:56:07.904Z,101732.66
2022-10-18T14:58:38.401Z,101727.84
2022-10-18T15:01:06.980Z,101729.09
2022-10-18T15:03:35.867Z,101723.34
2022-10-18T15:06:05.932Z,101722.00
2022-10-18T15:08:37.780Z,101725.06
2022-10-18T15:11:10.604Z,101713.97
2022-10-18T15:13:57.986Z,101721.63
2022-10-18T15:16:30.680Z,101709.56
2022-10-18T15:19:16.984Z,101710.91
2022-10-18T15:22:32.996Z,101716.78
2022-10-18T15:25:05.629Z,101710.22
2022-10-18T15:27:36.791Z,101701.16
2022-10-18T15:30:11.638Z,101697.72
2022-10-18T15:33:16.170Z,101705.25
2022-10-18T15:35:44.339Z,101701.94
2022-10-18T15:38:27.161Z,101701.38
2022-10-18T15:40:54.985Z,101694.03
2022-10-18T15:43:28.149Z,101706.75
2022-10-18T15:46:05.007Z,101702.66
2022-10-18T15:48:41.748Z,101697.81
2022-10-18T15:51:19.606Z,101698.19
2022-10-18T15:53:49.617Z,101698.78
2022-10-18T15:56:30.368Z,101693.22
2022-10-18T15:58:59.276Z,101702.47
2022-10-18T16:01:35.696Z,101694.50
2022-10-18T16:04:10.873Z,101693.78
2022-10-18T16:06:38.753Z,101690.41
2022-10-18T16:09:07.245Z,101692.19
2022-10-18T16:11:34.666Z,101677.44
2022-10-18T16:14:01.967Z,101676.06
2022-10-18T16:16:29.630Z,101684.91
2022-10-18T16:18:57.517Z,101675.44
2022-10-18T16:21:45.563Z,101673.00
2022-10-18T16:24:12.814Z,101675.22
2022-10-18T16:26:40.389Z,101658.56
2022-10-18T16:29:17.105Z,101669.28
2022-10-18T16:31:57.161Z,101657.25
2022-10-18T16:34:26.854Z,101645.97
2022-10-18T16:37:02.131Z,101650.56
2022-10-18T16:39:32.175Z,101653.28
2022-10-18T16:41:59.631Z,101652.53
2022-10-18T16:44:26.823Z,101639.56
2022-10-18T16:47:11.212Z,101653.78
2022-10-18T16:49:39.934Z,101646.00
2022-10-18T16:52:07.045Z,101638.00
2022-10-18T16:54:40.653Z,101640.13
2022-10-18T16:57:08.868Z,101651.53
2022-10-18T16:59:37.180Z,101649.09
2022-10-18T17:02:10.234Z,101647.59
2022-10-18T17:04:37.751Z,101647.09
2022-10-18T17:07:05.188Z,101642.13
2022-10-18T17:09:35.124Z,101645.16
2022-10-18T17:12:02.292Z,101640.47
2022-10-18T17:14:33.406Z,101644.25
2022-10-18T17:17:00.339Z,101639.50
2022-10-18T17:19:30.333Z,101643.41
2022-10-18T17:22:02.278Z,101630.41
2022-10-18T17:24:30.329Z,101628.09
2022-10-18T17:26:58.027Z,101625.72
2022-10-18T17:29:25.536Z,101625.81
2022-10-18T17:31:52.600Z,101625.09
2022-10-18T17:34:22.480Z,101626.13
2022-10-18T17:36:57.356Z,101612.34
2022-10-18T17:39:27.813Z,101606.44
2022-10-18T17:41:55.723Z,101609.13
2022-10-18T17:44:24.229Z,101611.78
2022-10-18T17:46:51.917Z,101606.44
2022-10-18T17:49:19.427Z,101602.69
2022-10-18T17:51:47.781Z,101595.72
2022-10-18T17:54:15.093Z,101590.81
2022-10-18T17:56:43.206Z,101593.78
2022-10-18T17:59:11.790Z,101589.94
2022-10-18T18:01:42.111Z,101591.16
2022-10-18T18:04:22.790Z,101581.06
2022-10-18T18:06:54.658Z,101567.38
2022-10-18T18:09:50.166Z,101579.91
2022-10-18T18:12:17.375Z,101564.25
2022-10-18T18:14:47.488Z,101575.88
2022-10-18T18:17:15.033Z,101564.72
2022-10-18T18:19:42.974Z,101569.41
2022-10-18T18:22:36.919Z,101559.19
2022-10-18T18:27:50.540Z,101561.94
2022-10-18T18:30:22.044Z,101548.88
2022-10-18T18:32:49.316Z,101558.53
2022-10-18T18:35:19.437Z,101544.72
2022-10-18T18:37:54.345Z,101543.94
2022-10-18T18:40:23.956Z,101533.59
2022-10-18T18:43:07.268Z,101532.97
2022-10-18T18:45:39.209Z,101545.22
2022-10-18T18:48:08.679Z,101531.34
2022-10-18T18:50:37.295Z,101523.59
2022-10-18T18:53:05.001Z,101521.06
2022-10-18T18:55:34.899Z,101526.63
2022-10-18T18:58:04.105Z,101519.84
2022-10-18T19:00:31.703Z,101513.00
2022-10-18T19:02:59.020Z,101508.81
2022-10-18T19:05:28.196Z,101529.03
2022-10-18T19:07:55.358Z,101508.00
2022-10-18T19:10:22.834Z,101507.25
2022-10-18T19:12:51.207Z,101517.84
2022-10-18T19:15:21.695Z,101516.91
2022-10-18T19:17:51.513Z,101518.66
2022-10-18T19:20:19.183Z,101489.78
2022-10-18T19:22:46.267Z,101495.84
2022-10-18T19:25:16.533Z,101493.06
2022-10-18T19:27:43.715Z,101495.72
2022-10-18T19:30:13.237Z,101498.38
2022-10-18T19:32:40.916Z,101476.53
2022-10-18T19:35:10.761Z,101478.41
2022-10-18T19:37:39.448Z,101481.97
2022-10-18T19:40:08.925Z,101483.75
2022-10-18T19:42:40.917Z,101472.34
2022-10-18T19:45:09.100Z,101478.44
2022-10-18T19:47:38.469Z,101478.41
2022-10-18T19:50:06.482Z,101466.09
2022-10-18T19:52:33.718Z,101467.88
2022-10-18T19:55:01.716Z,101461.78
2022-10-18T19:57:29.870Z,101458.22
2022-10-18T19:59:58.434Z,101459.81
2022-10-18T20:02:27.730Z,101445.69
2022-10-18T20:04:56.364Z,101461.44
2022-10-18T20:07:23.893Z,101456.13
2022-10-18T20:09:51.141Z,101449.03
2022-10-18T20:12:18.181Z,101438.50
2022-10-18T20:14:45.560Z,101436.63
2022-10-18T20:17:13.736Z,101431.34
2022-10-18T20:19:41.804Z,101433.88
2022-10-18T20:22:08.741Z,101432.97
2022-10-18T20:24:36.002Z,101413.50
2022-10-18T20:27:03.616Z,101416.94
2022-10-18T20:29:31.724Z,101401.03
2022-10-18T20:31:58.881Z,101409.78
2022-10-18T20:34:28.534Z,101402.75
2022-10-18T20:36:55.919Z,101401.75
2022-10-18T20:39:23.706Z,101398.19
2022-10-18T20:41:50.960Z,101396.44
2022-10-18T20:44:20.890Z,101387.66
2022-10-18T20:46:47.913Z,101398.28
2022-10-18T20:49:16.609Z,101389.50
2022-10-18T20:51:44.053Z,101385.19
2022-10-18T20:54:14.073Z,101383.47
2022-10-18T20:56:41.131Z,101377.44
2022-10-18T20:59:10.151Z,101363.53
2022-10-18T21:01:39.225Z,101368.84
2022-10-18T21:04:09.313Z,101361.13
2022-10-18T21:06:40.458Z,101360.31
2022-10-18T21:09:11.688Z,101354.22
2022-10-18T21:11:41.533Z,101341.22
2022-10-18T21:14:16.218Z,101355.25
2022-10-18T21:16:43.908Z,101350.88
2022-10-18T21:19:23.615Z,101351.72
2022-10-18T21:21:53.897Z,101349.00
2022-10-18T21:24:23.240Z,101336.47
2022-10-18T21:26:50.627Z,101324.00
2022-10-18T21:29:21.927Z,101322.09
2022-10-18T21:32:00.977Z,101313.41
2022-10-18T21:34:30.909Z,101308.09
2022-10-18T21:36:57.898Z,101298.56
2022-10-18T21:39:26.645Z,101300.44
2022-10-18T21:41:54.031Z,101289.91
2022-10-18T21:44:21.747Z,101294.25
2022-10-18T21:46:48.967Z,101298.66
2022-10-18T21:49:16.696Z,101282.06
2022-10-18T21:51:43.828Z,101280.28
2022-10-18T21:54:16.181Z,101276.81
2022-10-18T21:56:43.556Z,101273.28
2022-10-18T21:59:14.296Z,101264.53
2022-10-18T22:01:43.683Z,101265.41
2022-10-18T22:04:20.614Z,101258.41
2022-10-18T22:06:47.757Z,101267.22
2022-10-18T22:09:15.080Z,101254.09
2022-10-18T22:11:45.945Z,101256.91
2022-10-18T22:14:13.210Z,101256.88
2022-10-18T22:16:40.174Z,101259.56
2022-10-18T22:19:08.124Z,101250.75
2022-10-18T22:21:35.605Z,101248.09
2022-10-18T22:24:08.218Z,101247.34
2022-10-18T22:26:38.246Z,101237.75
2022-10-18T22:29:08.638Z,101244.78
2022-10-18T22:31:38.778Z,101241.31
2022-10-18T22:34:08.956Z,101235.16
2022-10-18T22:36:36.069Z,101230.00
2022-10-18T22:39:05.559Z,101233.56
2022-10-18T22:41:34.173Z,101226.53
2022-10-18T22:44:03.661Z,101214.38
2022-10-18T22:46:35.395Z,101217.84
2022-10-18T22:49:02.604Z,101215.34
2022-10-18T22:51:29.599Z,101211.03
2022-10-18T22:53:57.110Z,101200.56
2022-10-18T22:56:24.815Z,101206.78
2022-10-18T22:58:52.948Z,101202.56
2022-10-18T23:01:22.672Z,101187.72
2022-10-18T23:03:58.221Z,101193.94
2022-10-18T23:06:29.083Z,101194.03
2022-10-18T23:08:58.784Z,101191.44
2022-10-18T23:11:27.806Z,101190.59
2022-10-18T23:13:55.340Z,101179.16
2022-10-18T23:16:22.757Z,101183.53
2022-10-18T23:18:52.487Z,101178.25
2022-10-18T23:21:20.183Z,101179.97
2022-10-18T23:23:47.573Z,101184.44
2022-10-18T23:26:16.734Z,101188.81
2022-10-18T23:28:46.364Z,101174.75
2022-10-18T23:31:19.398Z,101171.25
2022-10-18T23:33:54.281Z,101172.09
2022-10-18T23:36:22.067Z,101165.06
2022-10-18T23:38:49.676Z,101165.94
2022-10-18T23:41:17.313Z,101166.81
2022-10-18T23:43:46.126Z,101167.72
2022-10-18T23:46:15.634Z,101155.34
2022-10-18T23:48:43.685Z,101146.59
2022-10-18T23:51:10.961Z,101162.34
2022-10-18T23:53:38.766Z,101151.78
2022-10-18T23:56:09.078Z,101144.94
2022-10-18T23:58:37.414Z,101151.38
